sensor_id;sensor_type;location;lat;lon;timestamp;temperature;humidity
971;DHT22;28939;45.540;-122.632;2022-09-03T00:01:00;32.60;61.30
971;DHT22;28939;45.540;-122.632;2022-09-03T00:03:37;32.60;62.50
971;DHT22;28939;45.540;-122.632;2022-09-03T00:06:13;32.60;62.90
971;DHT22;28939;45.540;-122.632;2022-09-03T00:08:51;32.70;60.70
971;DHT22;28939;45.540;-122.632;2022-09-03T00:11:29;32.70;60.80
971;DHT22;28939;45.540;-122.632;2022-09-03T00:14:06;32.60;61.50
971;DHT22;28939;45.540;-122.632;2022-09-03T00:16:47;32.70;59.40
971;DHT22;28939;45.540;-122.632;2022-09-03T00:19:22;32.50;61.00
971;DHT22;28939;45.540;-122.632;2022-09-03T00:21:56;32.10;64.30
971;DHT22;28939;45.540;-122.632;2022-09-03T00:24:34;32.20;63.20
971;DHT22;28939;45.540;-122.632;2022-09-03T00:27:10;32.10;67.40
971;DHT22;28939;45.540;-122.632;2022-09-03T00:29:47;32.10;67.60
971;DHT22;28939;45.540;-122.632;2022-09-03T00:32:33;32.10;68.40
971;DHT22;28939;45.540;-122.632;2022-09-03T00:35:12;31.70;69.70
971;DHT22;28939;45.540;-122.632;2022-09-03T00:37:44;31.60;69.00
971;DHT22;28939;45.540;-122.632;2022-09-03T00:40:30;31.50;71.70
971;DHT22;28939;45.540;-122.632;2022-09-03T00:43:07;31.20;72.00
971;DHT22;28939;45.540;-122.632;2022-09-03T00:45:46;31.00;72.80
971;DHT22;28939;45.540;-122.632;2022-09-03T00:48:22;30.80;73.10
971;DHT22;28939;45.540;-122.632;2022-09-03T00:51:12;30.70;74.40
971;DHT22;28939;45.540;-122.632;2022-09-03T00:53:54;30.60;76.60
971;DHT22;28939;45.540;-122.632;2022-09-03T00:56:36;30.50;78.50
971;DHT22;28939;45.540;-122.632;2022-09-03T00:59:21;30.40;78.50
971;DHT22;28939;45.540;-122.632;2022-09-03T01:02:00;30.20;79.40
971;DHT22;28939;45.540;-122.632;2022-09-03T01:04:41;30.10;79.40
971;DHT22;28939;45.540;-122.632;2022-09-03T01:07:21;30.00;81.00
971;DHT22;28939;45.540;-122.632;2022-09-03T01:10:05;29.90;80.40
971;DHT22;28939;45.540;-122.632;2022-09-03T01:12:47;29.80;81.20
971;DHT22;28939;45.540;-122.632;2022-09-03T01:15:27;29.60;81.40
971;DHT22;28939;45.540;-122.632;2022-09-03T01:18:10;29.40;81.90
971;DHT22;28939;45.540;-122.632;2022-09-03T01:20:54;29.20;82.70
971;DHT22;28939;45.540;-122.632;2022-09-03T01:26:48;29.10;83.50
971;DHT22;28939;45.540;-122.632;2022-09-03T01:29:26;29.10;83.50
971;DHT22;28939;45.540;-122.632;2022-09-03T01:32:03;28.90;84.60
971;DHT22;28939;45.540;-122.632;2022-09-03T01:34:46;28.90;84.40
971;DHT22;28939;45.540;-122.632;2022-09-03T01:37:29;28.70;84.40
971;DHT22;28939;45.540;-122.632;2022-09-03T01:40:12;28.50;82.90
971;DHT22;28939;45.540;-122.632;2022-09-03T01:42:52;28.30;84.50
971;DHT22;28939;45.540;-122.632;2022-09-03T01:45:39;28.10;85.30
971;DHT22;28939;45.540;-122.632;2022-09-03T01:48:36;28.10;85.80
971;DHT22;28939;45.540;-122.632;2022-09-03T01:51:20;27.90;86.50
971;DHT22;28939;45.540;-122.632;2022-09-03T01:54:22;27.80;87.90
971;DHT22;28939;45.540;-122.632;2022-09-03T01:57:16;27.70;87.90
971;DHT22;28939;45.540;-122.632;2022-09-03T02:00:06;27.60;87.10
971;DHT22;28939;45.540;-122.632;2022-09-03T02:02:40;27.40;87.40
971;DHT22;28939;45.540;-122.632;2022-09-03T02:05:13;27.30;88.20
971;DHT22;28939;45.540;-122.632;2022-09-03T02:07:49;27.10;87.90
971;DHT22;28939;45.540;-122.632;2022-09-03T02:10:23;27.00;88.20
971;DHT22;28939;45.540;-122.632;2022-09-03T02:13:00;26.90;89.00
971;DHT22;28939;45.540;-122.632;2022-09-03T02:15:32;26.90;88.70
971;DHT22;28939;45.540;-122.632;2022-09-03T02:18:09;26.70;90.00
971;DHT22;28939;45.540;-122.632;2022-09-03T02:20:42;26.60;90.00
971;DHT22;28939;45.540;-122.632;2022-09-03T02:23:13;26.60;90.20
971;DHT22;28939;45.540;-122.632;2022-09-03T02:25:46;26.50;90.90
971;DHT22;28939;45.540;-122.632;2022-09-03T02:28:18;26.40;90.90
971;DHT22;28939;45.540;-122.632;2022-09-03T02:30:49;26.20;91.40
971;DHT22;28939;45.540;-122.632;2022-09-03T02:33:21;26.10;92.00
971;DHT22;28939;45.540;-122.632;2022-09-03T02:35:52;26.10;92.40
971;DHT22;28939;45.540;-122.632;2022-09-03T02:38:25;26.00;92.90
971;DHT22;28939;45.540;-122.632;2022-09-03T02:40:56;25.80;93.50
971;DHT22;28939;45.540;-122.632;2022-09-03T02:43:32;25.70;93.70
971;DHT22;28939;45.540;-122.632;2022-09-03T02:46:07;25.60;93.50
971;DHT22;28939;45.540;-122.632;2022-09-03T02:48:40;25.60;93.60
971;DHT22;28939;45.540;-122.632;2022-09-03T02:51:11;25.50;94.00
971;DHT22;28939;45.540;-122.632;2022-09-03T02:53:42;25.50;94.00
971;DHT22;28939;45.540;-122.632;2022-09-03T02:56:13;25.40;94.10
971;DHT22;28939;45.540;-122.632;2022-09-03T02:58:44;25.30;94.60
971;DHT22;28939;45.540;-122.632;2022-09-03T03:01:15;25.10;94.80
971;DHT22;28939;45.540;-122.632;2022-09-03T03:03:52;25.00;95.40
971;DHT22;28939;45.540;-122.632;2022-09-03T03:06:23;24.80;95.90
971;DHT22;28939;45.540;-122.632;2022-09-03T03:08:54;24.80;96.20
971;DHT22;28939;45.540;-122.632;2022-09-03T03:11:25;24.60;96.30
971;DHT22;28939;45.540;-122.632;2022-09-03T03:13:56;24.50;96.60
971;DHT22;28939;45.540;-122.632;2022-09-03T03:16:27;24.40;96.60
971;DHT22;28939;45.540;-122.632;2022-09-03T03:19:00;24.20;96.70
971;DHT22;28939;45.540;-122.632;2022-09-03T03:21:30;24.10;97.20
971;DHT22;28939;45.540;-122.632;2022-09-03T03:24:02;24.10;97.10
971;DHT22;28939;45.540;-122.632;2022-09-03T03:26:33;23.90;97.20
971;DHT22;28939;45.540;-122.632;2022-09-03T03:29:04;23.80;97.60
971;DHT22;28939;45.540;-122.632;2022-09-03T03:31:36;23.70;98.00
971;DHT22;28939;45.540;-122.632;2022-09-03T03:34:08;23.50;98.20
971;DHT22;28939;45.540;-122.632;2022-09-03T03:36:39;23.40;98.50
971;DHT22;28939;45.540;-122.632;2022-09-03T03:39:10;23.30;98.70
971;DHT22;28939;45.540;-122.632;2022-09-03T03:41:40;23.20;98.90
971;DHT22;28939;45.540;-122.632;2022-09-03T03:44:11;23.10;99.40
971;DHT22;28939;45.540;-122.632;2022-09-03T03:46:42;23.00;99.60
971;DHT22;28939;45.540;-122.632;2022-09-03T03:49:15;22.80;99.90
971;DHT22;28939;45.540;-122.632;2022-09-03T03:51:46;22.70;99.90
971;DHT22;28939;45.540;-122.632;2022-09-03T03:54:17;22.70;99.90
971;DHT22;28939;45.540;-122.632;2022-09-03T03:56:48;22.50;99.90
971;DHT22;28939;45.540;-122.632;2022-09-03T03:59:22;22.40;99.90
971;DHT22;28939;45.540;-122.632;2022-09-03T04:01:54;22.20;99.90
971;DHT22;28939;45.540;-122.632;2022-09-03T04:04:26;22.20;99.90
971;DHT22;28939;45.540;-122.632;2022-09-03T04:06:57;22.10;99.90
971;DHT22;28939;45.540;-122.632;2022-09-03T04:09:28;22.10;99.90
971;DHT22;28939;45.540;-122.632;2022-09-03T04:11:59;22.00;99.90
971;DHT22;28939;45.540;-122.632;2022-09-03T04:14:31;22.00;99.90
971;DHT22;28939;45.540;-122.632;2022-09-03T04:17:02;21.90;99.90
971;DHT22;28939;45.540;-122.632;2022-09-03T04:19:34;21.80;99.90
971;DHT22;28939;45.540;-122.632;2022-09-03T04:22:06;21.70;99.90
971;DHT22;28939;45.540;-122.632;2022-09-03T04:24:36;21.60;99.90
971;DHT22;28939;45.540;-122.632;2022-09-03T04:27:07;21.50;99.90
971;DHT22;28939;45.540;-122.632;2022-09-03T04:29:38;21.30;99.90
971;DHT22;28939;45.540;-122.632;2022-09-03T04:32:08;21.20;99.90
971;DHT22;28939;45.540;-122.632;2022-09-03T04:34:58;21.20;99.90
971;DHT22;28939;45.540;-122.632;2022-09-03T04:37:28;21.10;99.90
971;DHT22;28939;45.540;-122.632;2022-09-03T04:39:59;21.00;99.90
971;DHT22;28939;45.540;-122.632;2022-09-03T04:42:30;20.90;99.90
971;DHT22;28939;45.540;-122.632;2022-09-03T04:45:01;20.80;99.90
971;DHT22;28939;45.540;-122.632;2022-09-03T04:47:32;20.70;99.90
971;DHT22;28939;45.540;-122.632;2022-09-03T04:50:06;20.70;99.90
971;DHT22;28939;45.540;-122.632;2022-09-03T04:52:37;20.50;99.90
971;DHT22;28939;45.540;-122.632;2022-09-03T04:55:08;20.50;99.90
971;DHT22;28939;45.540;-122.632;2022-09-03T04:57:40;20.50;99.90
971;DHT22;28939;45.540;-122.632;2022-09-03T05:00:12;20.40;99.90
971;DHT22;28939;45.540;-122.632;2022-09-03T05:02:46;20.30;99.90
971;DHT22;28939;45.540;-122.632;2022-09-03T05:05:20;20.20;99.90
971;DHT22;28939;45.540;-122.632;2022-09-03T05:07:51;20.10;99.90
971;DHT22;28939;45.540;-122.632;2022-09-03T05:10:22;20.00;99.90
971;DHT22;28939;45.540;-122.632;2022-09-03T05:12:58;20.00;99.90
971;DHT22;28939;45.540;-122.632;2022-09-03T05:15:29;19.90;99.90
971;DHT22;28939;45.540;-122.632;2022-09-03T05:18:02;20.00;99.90
971;DHT22;28939;45.540;-122.632;2022-09-03T05:20:34;19.90;99.90
971;DHT22;28939;45.540;-122.632;2022-09-03T05:23:05;19.80;99.90
971;DHT22;28939;45.540;-122.632;2022-09-03T05:25:35;19.70;99.90
971;DHT22;28939;45.540;-122.632;2022-09-03T05:28:07;19.70;99.90
971;DHT22;28939;45.540;-122.632;2022-09-03T05:30:38;19.70;99.90
971;DHT22;28939;45.540;-122.632;2022-09-03T05:33:09;19.60;99.90
971;DHT22;28939;45.540;-122.632;2022-09-03T05:35:44;19.60;99.90
971;DHT22;28939;45.540;-122.632;2022-09-03T05:38:15;19.50;99.90
971;DHT22;28939;45.540;-122.632;2022-09-03T05:40:46;19.40;99.90
971;DHT22;28939;45.540;-122.632;2022-09-03T05:43:16;19.30;99.90
971;DHT22;28939;45.540;-122.632;2022-09-03T05:45:48;19.20;99.90
971;DHT22;28939;45.540;-122.632;2022-09-03T05:48:19;19.10;99.90
971;DHT22;28939;45.540;-122.632;2022-09-03T05:50:58;19.10;99.90
971;DHT22;28939;45.540;-122.632;2022-09-03T05:53:31;19.10;99.90
971;DHT22;28939;45.540;-122.632;2022-09-03T05:56:04;19.00;99.90
971;DHT22;28939;45.540;-122.632;2022-09-03T05:58:37;19.00;99.90
971;DHT22;28939;45.540;-122.632;2022-09-03T06:01:12;18.90;99.90
971;DHT22;28939;45.540;-122.632;2022-09-03T06:03:44;18.90;99.90
971;DHT22;28939;45.540;-122.632;2022-09-03T06:06:16;18.80;99.90
971;DHT22;28939;45.540;-122.632;2022-09-03T06:08:50;18.80;99.90
971;DHT22;28939;45.540;-122.632;2022-09-03T06:11:21;18.80;99.90
971;DHT22;28939;45.540;-122.632;2022-09-03T06:13:54;18.80;99.90
971;DHT22;28939;45.540;-122.632;2022-09-03T06:16:25;18.80;99.90
971;DHT22;28939;45.540;-122.632;2022-09-03T06:18:59;18.70;99.90
971;DHT22;28939;45.540;-122.632;2022-09-03T06:21:31;18.60;99.90
971;DHT22;28939;45.540;-122.632;2022-09-03T06:24:04;18.60;99.90
971;DHT22;28939;45.540;-122.632;2022-09-03T06:26:35;18.60;99.90
971;DHT22;28939;45.540;-122.632;2022-09-03T06:29:09;18.50;99.90
971;DHT22;28939;45.540;-122.632;2022-09-03T06:31:40;18.60;99.90
971;DHT22;28939;45.540;-122.632;2022-09-03T06:34:11;18.50;99.90
971;DHT22;28939;45.540;-122.632;2022-09-03T06:36:44;18.60;99.90
971;DHT22;28939;45.540;-122.632;2022-09-03T06:39:15;18.70;99.90
971;DHT22;28939;45.540;-122.632;2022-09-03T06:41:45;18.70;99.90
971;DHT22;28939;45.540;-122.632;2022-09-03T06:44:19;18.80;99.90
971;DHT22;28939;45.540;-122.632;2022-09-03T06:46:50;18.70;99.90
971;DHT22;28939;45.540;-122.632;2022-09-03T06:49:21;18.80;99.90
971;DHT22;28939;45.540;-122.632;2022-09-03T06:51:55;18.80;99.90
971;DHT22;28939;45.540;-122.632;2022-09-03T06:54:26;19.00;99.90
971;DHT22;28939;45.540;-122.632;2022-09-03T06:56:56;19.00;99.90
971;DHT22;28939;45.540;-122.632;2022-09-03T06:59:27;19.10;99.90
971;DHT22;28939;45.540;-122.632;2022-09-03T07:01:58;19.00;99.90
971;DHT22;28939;45.540;-122.632;2022-09-03T07:04:31;18.90;99.90
971;DHT22;28939;45.540;-122.632;2022-09-03T07:07:05;19.00;99.90
971;DHT22;28939;45.540;-122.632;2022-09-03T07:09:40;19.00;99.90
971;DHT22;28939;45.540;-122.632;2022-09-03T07:12:15;18.90;99.90
971;DHT22;28939;45.540;-122.632;2022-09-03T07:14:47;18.80;99.90
971;DHT22;28939;45.540;-122.632;2022-09-03T07:17:18;18.90;99.90
971;DHT22;28939;45.540;-122.632;2022-09-03T07:19:48;19.00;99.90
971;DHT22;28939;45.540;-122.632;2022-09-03T07:22:21;19.10;99.90
971;DHT22;28939;45.540;-122.632;2022-09-03T07:24:58;18.90;99.90
971;DHT22;28939;45.540;-122.632;2022-09-03T07:27:29;19.00;99.90
971;DHT22;28939;45.540;-122.632;2022-09-03T07:30:00;19.00;99.90
971;DHT22;28939;45.540;-122.632;2022-09-03T07:32:33;18.90;99.90
971;DHT22;28939;45.540;-122.632;2022-09-03T07:35:08;18.90;99.90
971;DHT22;28939;45.540;-122.632;2022-09-03T07:37:42;18.80;99.90
971;DHT22;28939;45.540;-122.632;2022-09-03T07:40:13;18.80;99.90
971;DHT22;28939;45.540;-122.632;2022-09-03T07:42:47;18.80;99.90
971;DHT22;28939;45.540;-122.632;2022-09-03T07:45:23;18.80;99.90
971;DHT22;28939;45.540;-122.632;2022-09-03T07:47:56;18.90;99.90
971;DHT22;28939;45.540;-122.632;2022-09-03T07:50:27;19.00;99.90
971;DHT22;28939;45.540;-122.632;2022-09-03T07:53:03;19.00;99.90
971;DHT22;28939;45.540;-122.632;2022-09-03T07:55:34;18.90;99.90
971;DHT22;28939;45.540;-122.632;2022-09-03T07:58:04;19.00;99.90
971;DHT22;28939;45.540;-122.632;2022-09-03T08:00:35;18.90;99.90
971;DHT22;28939;45.540;-122.632;2022-09-03T08:03:06;18.80;99.90
971;DHT22;28939;45.540;-122.632;2022-09-03T08:05:38;18.80;99.90
971;DHT22;28939;45.540;-122.632;2022-09-03T08:08:10;18.80;99.90
971;DHT22;28939;45.540;-122.632;2022-09-03T08:10:43;18.90;99.90
971;DHT22;28939;45.540;-122.632;2022-09-03T08:13:13;18.90;99.90
971;DHT22;28939;45.540;-122.632;2022-09-03T08:15:53;18.90;99.90
971;DHT22;28939;45.540;-122.632;2022-09-03T08:18:27;18.90;99.90
971;DHT22;28939;45.540;-122.632;2022-09-03T08:20:59;19.00;99.90
971;DHT22;28939;45.540;-122.632;2022-09-03T08:23:32;18.80;99.90
971;DHT22;28939;45.540;-122.632;2022-09-03T08:26:04;18.80;99.90
971;DHT22;28939;45.540;-122.632;2022-09-03T08:28:36;18.80;99.90
971;DHT22;28939;45.540;-122.632;2022-09-03T08:31:08;18.70;99.90
971;DHT22;28939;45.540;-122.632;2022-09-03T08:33:41;18.70;99.90
971;DHT22;28939;45.540;-122.632;2022-09-03T08:36:14;18.80;99.90
971;DHT22;28939;45.540;-122.632;2022-09-03T08:38:47;18.80;99.90
971;DHT22;28939;45.540;-122.632;2022-09-03T08:41:27;18.70;99.90
971;DHT22;28939;45.540;-122.632;2022-09-03T08:44:12;18.70;99.90
971;DHT22;28939;45.540;-122.632;2022-09-03T08:46:50;18.70;99.90
971;DHT22;28939;45.540;-122.632;2022-09-03T08:49:26;18.70;99.90
971;DHT22;28939;45.540;-122.632;2022-09-03T08:52:01;18.70;99.90
971;DHT22;28939;45.540;-122.632;2022-09-03T08:54:36;18.60;99.90
971;DHT22;28939;45.540;-122.632;2022-09-03T08:57:08;18.60;99.90
971;DHT22;28939;45.540;-122.632;2022-09-03T08:59:39;18.60;99.90
971;DHT22;28939;45.540;-122.632;2022-09-03T09:02:18;18.60;99.90
971;DHT22;28939;45.540;-122.632;2022-09-03T09:04:59;18.60;99.90
971;DHT22;28939;45.540;-122.632;2022-09-03T09:07:41;18.70;99.90
971;DHT22;28939;45.540;-122.632;2022-09-03T09:10:21;18.70;99.90
971;DHT22;28939;45.540;-122.632;2022-09-03T09:13:06;18.60;99.90
971;DHT22;28939;45.540;-122.632;2022-09-03T09:15:46;18.50;99.90
971;DHT22;28939;45.540;-122.632;2022-09-03T09:18:22;18.60;99.90
971;DHT22;28939;45.540;-122.632;2022-09-03T09:21:06;18.70;99.90
971;DHT22;28939;45.540;-122.632;2022-09-03T09:23:41;18.70;99.90
971;DHT22;28939;45.540;-122.632;2022-09-03T09:26:17;18.70;99.90
971;DHT22;28939;45.540;-122.632;2022-09-03T09:28:54;18.70;99.90
971;DHT22;28939;45.540;-122.632;2022-09-03T09:31:28;18.60;99.90
971;DHT22;28939;45.540;-122.632;2022-09-03T09:34:03;18.50;99.90
971;DHT22;28939;45.540;-122.632;2022-09-03T09:36:41;18.60;99.90
971;DHT22;28939;45.540;-122.632;2022-09-03T09:39:13;18.60;99.90
971;DHT22;28939;45.540;-122.632;2022-09-03T09:41:59;18.60;99.90
971;DHT22;28939;45.540;-122.632;2022-09-03T09:44:36;18.60;99.90
971;DHT22;28939;45.540;-122.632;2022-09-03T09:47:15;18.60;99.90
971;DHT22;28939;45.540;-122.632;2022-09-03T09:49:53;18.60;99.90
971;DHT22;28939;45.540;-122.632;2022-09-03T09:52:25;18.70;99.90
971;DHT22;28939;45.540;-122.632;2022-09-03T09:55:06;18.60;99.90
971;DHT22;28939;45.540;-122.632;2022-09-03T09:57:38;18.70;99.90
971;DHT22;28939;45.540;-122.632;2022-09-03T10:00:12;18.60;99.90
971;DHT22;28939;45.540;-122.632;2022-09-03T10:02:48;18.60;99.90
971;DHT22;28939;45.540;-122.632;2022-09-03T10:05:20;18.60;99.90
971;DHT22;28939;45.540;-122.632;2022-09-03T10:07:56;18.60;99.90
971;DHT22;28939;45.540;-122.632;2022-09-03T10:10:27;18.60;99.90
971;DHT22;28939;45.540;-122.632;2022-09-03T10:13:07;18.60;99.90
971;DHT22;28939;45.540;-122.632;2022-09-03T10:15:43;18.60;99.90
971;DHT22;28939;45.540;-122.632;2022-09-03T10:18:18;18.60;99.90
971;DHT22;28939;45.540;-122.632;2022-09-03T10:21:00;18.60;99.90
971;DHT22;28939;45.540;-122.632;2022-09-03T10:23:40;18.70;99.90
971;DHT22;28939;45.540;-122.632;2022-09-03T10:26:15;18.70;99.90
971;DHT22;28939;45.540;-122.632;2022-09-03T10:28:50;18.60;99.90
971;DHT22;28939;45.540;-122.632;2022-09-03T10:31:43;18.60;99.90
971;DHT22;28939;45.540;-122.632;2022-09-03T10:34:20;18.60;99.90
971;DHT22;28939;45.540;-122.632;2022-09-03T10:36:58;18.50;99.90
971;DHT22;28939;45.540;-122.632;2022-09-03T10:39:43;18.50;99.90
971;DHT22;28939;45.540;-122.632;2022-09-03T10:42:35;18.50;99.90
971;DHT22;28939;45.540;-122.632;2022-09-03T10:45:17;18.50;99.90
971;DHT22;28939;45.540;-122.632;2022-09-03T10:48:23;18.50;99.90
971;DHT22;28939;45.540;-122.632;2022-09-03T10:51:00;18.60;99.90
971;DHT22;28939;45.540;-122.632;2022-09-03T10:53:50;18.50;99.90
971;DHT22;28939;45.540;-122.632;2022-09-03T10:56:29;18.60;99.90
971;DHT22;28939;45.540;-122.632;2022-09-03T10:59:15;18.70;99.90
971;DHT22;28939;45.540;-122.632;2022-09-03T11:02:04;18.50;99.90
971;DHT22;28939;45.540;-122.632;2022-09-03T11:04:48;18.60;99.90
971;DHT22;28939;45.540;-122.632;2022-09-03T11:07:24;18.70;99.90
971;DHT22;28939;45.540;-122.632;2022-09-03T11:10:04;18.70;99.90
971;DHT22;28939;45.540;-122.632;2022-09-03T11:12:43;18.60;99.90
971;DHT22;28939;45.540;-122.632;2022-09-03T11:15:23;18.50;99.90
971;DHT22;28939;45.540;-122.632;2022-09-03T11:18:00;18.60;99.90
971;DHT22;28939;45.540;-122.632;2022-09-03T11:20:32;18.50;99.90
971;DHT22;28939;45.540;-122.632;2022-09-03T11:23:05;18.60;99.90
971;DHT22;28939;45.540;-122.632;2022-09-03T11:25:42;18.50;99.90
971;DHT22;28939;45.540;-122.632;2022-09-03T11:28:24;18.50;99.90
971;DHT22;28939;45.540;-122.632;2022-09-03T11:31:08;18.50;99.90
971;DHT22;28939;45.540;-122.632;2022-09-03T11:33:48;18.50;99.90
971;DHT22;28939;45.540;-122.632;2022-09-03T11:36:29;18.50;99.90
971;DHT22;28939;45.540;-122.632;2022-09-03T11:39:00;18.40;99.90
971;DHT22;28939;45.540;-122.632;2022-09-03T11:41:56;18.50;99.90
971;DHT22;28939;45.540;-122.632;2022-09-03T11:44:36;18.50;99.90
971;DHT22;28939;45.540;-122.632;2022-09-03T11:47:22;18.50;99.90
971;DHT22;28939;45.540;-122.632;2022-09-03T11:50:08;18.50;99.90
971;DHT22;28939;45.540;-122.632;2022-09-03T11:52:49;18.50;99.90
971;DHT22;28939;45.540;-122.632;2022-09-03T11:55:26;18.50;99.90
971;DHT22;28939;45.540;-122.632;2022-09-03T11:58:11;18.50;99.90
971;DHT22;28939;45.540;-122.632;2022-09-03T12:00:43;18.60;99.90
971;DHT22;28939;45.540;-122.632;2022-09-03T12:03:15;18.60;99.90
971;DHT22;28939;45.540;-122.632;2022-09-03T12:05:59;18.50;99.90
971;DHT22;28939;45.540;-122.632;2022-09-03T12:11:47;18.50;99.90
971;DHT22;28939;45.540;-122.632;2022-09-03T12:14:25;18.60;99.90
971;DHT22;28939;45.540;-122.632;2022-09-03T12:17:15;18.50;99.90
971;DHT22;28939;45.540;-122.632;2022-09-03T12:19:50;18.50;99.90
971;DHT22;28939;45.540;-122.632;2022-09-03T12:22:26;18.50;99.90
971;DHT22;28939;45.540;-122.632;2022-09-03T12:25:07;18.50;99.90
971;DHT22;28939;45.540;-122.632;2022-09-03T12:27:39;18.50;99.90
971;DHT22;28939;45.540;-122.632;2022-09-03T12:30:15;18.50;99.90
971;DHT22;28939;45.540;-122.632;2022-09-03T12:32:47;18.60;99.90
971;DHT22;28939;45.540;-122.632;2022-09-03T12:35:21;18.60;99.90
971;DHT22;28939;45.540;-122.632;2022-09-03T12:38:22;18.50;99.90
971;DHT22;28939;45.540;-122.632;2022-09-03T12:40:54;18.60;99.90
971;DHT22;28939;45.540;-122.632;2022-09-03T12:43:51;18.50;99.90
971;DHT22;28939;45.540;-122.632;2022-09-03T12:46:26;18.50;99.90
971;DHT22;28939;45.540;-122.632;2022-09-03T12:49:02;18.60;99.90
971;DHT22;28939;45.540;-122.632;2022-09-03T12:52:00;18.50;99.90
971;DHT22;28939;45.540;-122.632;2022-09-03T12:54:37;18.50;99.90
971;DHT22;28939;45.540;-122.632;2022-09-03T12:57:09;18.50;99.90
971;DHT22;28939;45.540;-122.632;2022-09-03T12:59:40;18.50;99.90
971;DHT22;28939;45.540;-122.632;2022-09-03T13:02:16;18.50;99.90
971;DHT22;28939;45.540;-122.632;2022-09-03T13:04:49;18.50;99.90
971;DHT22;28939;45.540;-122.632;2022-09-03T13:07:24;18.50;99.90
971;DHT22;28939;45.540;-122.632;2022-09-03T13:10:02;18.50;99.90
971;DHT22;28939;45.540;-122.632;2022-09-03T13:12:45;18.50;99.90
971;DHT22;28939;45.540;-122.632;2022-09-03T13:15:22;18.50;99.90
971;DHT22;28939;45.540;-122.632;2022-09-03T13:18:18;18.50;99.90
971;DHT22;28939;45.540;-122.632;2022-09-03T13:21:07;18.40;99.90
971;DHT22;28939;45.540;-122.632;2022-09-03T13:23:55;18.40;99.90
971;DHT22;28939;45.540;-122.632;2022-09-03T13:26:43;18.30;99.90
971;DHT22;28939;45.540;-122.632;2022-09-03T13:29:36;18.30;99.90
971;DHT22;28939;45.540;-122.632;2022-09-03T13:32:16;18.30;99.90
971;DHT22;28939;45.540;-122.632;2022-09-03T13:34:55;18.30;99.90
971;DHT22;28939;45.540;-122.632;2022-09-03T13:37:34;18.20;99.90
971;DHT22;28939;45.540;-122.632;2022-09-03T13:40:14;18.20;99.90
971;DHT22;28939;45.540;-122.632;2022-09-03T13:42:54;18.30;99.90
971;DHT22;28939;45.540;-122.632;2022-09-03T13:45:36;18.30;99.90
971;DHT22;28939;45.540;-122.632;2022-09-03T13:48:12;18.30;99.90
971;DHT22;28939;45.540;-122.632;2022-09-03T13:51:06;18.40;99.90
971;DHT22;28939;45.540;-122.632;2022-09-03T13:53:50;18.30;99.90
971;DHT22;28939;45.540;-122.632;2022-09-03T13:56:43;18.20;99.90
971;DHT22;28939;45.540;-122.632;2022-09-03T13:59:22;18.20;99.90
971;DHT22;28939;45.540;-122.632;2022-09-03T14:02:19;18.30;99.90
971;DHT22;28939;45.540;-122.632;2022-09-03T14:05:03;18.30;99.90
971;DHT22;28939;45.540;-122.632;2022-09-03T14:07:47;18.20;99.90
971;DHT22;28939;45.540;-122.632;2022-09-03T14:10:30;18.30;99.90
971;DHT22;28939;45.540;-122.632;2022-09-03T14:13:12;18.40;99.90
971;DHT22;28939;45.540;-122.632;2022-09-03T14:15:51;18.30;99.90
971;DHT22;28939;45.540;-122.632;2022-09-03T14:18:36;18.30;99.90
971;DHT22;28939;45.540;-122.632;2022-09-03T14:21:14;18.30;99.90
971;DHT22;28939;45.540;-122.632;2022-09-03T14:23:51;18.20;99.90
971;DHT22;28939;45.540;-122.632;2022-09-03T14:26:27;18.30;99.90
971;DHT22;28939;45.540;-122.632;2022-09-03T14:29:14;18.40;99.90
971;DHT22;28939;45.540;-122.632;2022-09-03T14:32:08;18.40;99.90
971;DHT22;28939;45.540;-122.632;2022-09-03T14:35:01;18.30;99.90
971;DHT22;28939;45.540;-122.632;2022-09-03T14:37:53;18.40;99.90
971;DHT22;28939;45.540;-122.632;2022-09-03T14:40:30;18.40;99.90
971;DHT22;28939;45.540;-122.632;2022-09-03T14:43:30;18.50;99.90
971;DHT22;28939;45.540;-122.632;2022-09-03T14:46:18;18.50;99.90
971;DHT22;28939;45.540;-122.632;2022-09-03T14:49:16;18.40;99.90
971;DHT22;28939;45.540;-122.632;2022-09-03T14:52:00;18.50;99.90
971;DHT22;28939;45.540;-122.632;2022-09-03T14:54:54;18.40;99.90
971;DHT22;28939;45.540;-122.632;2022-09-03T15:00:33;18.60;99.90
971;DHT22;28939;45.540;-122.632;2022-09-03T15:03:25;18.70;99.90
971;DHT22;28939;45.540;-122.632;2022-09-03T15:06:10;18.60;99.90
971;DHT22;28939;45.540;-122.632;2022-09-03T15:08:54;18.70;99.90
971;DHT22;28939;45.540;-122.632;2022-09-03T15:11:34;18.70;99.90
971;DHT22;28939;45.540;-122.632;2022-09-03T15:14:16;18.80;99.90
971;DHT22;28939;45.540;-122.632;2022-09-03T15:16:52;18.80;99.90
971;DHT22;28939;45.540;-122.632;2022-09-03T15:19:42;18.90;99.90
971;DHT22;28939;45.540;-122.632;2022-09-03T15:22:31;19.00;99.90
971;DHT22;28939;45.540;-122.632;2022-09-03T15:25:11;18.80;99.90
971;DHT22;28939;45.540;-122.632;2022-09-03T15:27:58;18.90;99.90
971;DHT22;28939;45.540;-122.632;2022-09-03T15:30:35;18.80;99.90
971;DHT22;28939;45.540;-122.632;2022-09-03T15:33:16;19.00;99.90
971;DHT22;28939;45.540;-122.632;2022-09-03T15:36:03;19.00;99.90
971;DHT22;28939;45.540;-122.632;2022-09-03T15:38:45;19.10;99.90
971;DHT22;28939;45.540;-122.632;2022-09-03T15:41:28;19.20;99.90
971;DHT22;28939;45.540;-122.632;2022-09-03T15:44:04;19.30;99.90
971;DHT22;28939;45.540;-122.632;2022-09-03T15:46:55;19.30;99.90
971;DHT22;28939;45.540;-122.632;2022-09-03T15:49:35;19.50;99.90
971;DHT22;28939;45.540;-122.632;2022-09-03T15:52:28;19.70;99.90
971;DHT22;28939;45.540;-122.632;2022-09-03T15:55:08;19.80;99.90
971;DHT22;28939;45.540;-122.632;2022-09-03T15:57:46;19.90;99.90
971;DHT22;28939;45.540;-122.632;2022-09-03T16:00:21;20.00;99.90
971;DHT22;28939;45.540;-122.632;2022-09-03T16:02:57;20.20;99.90
971;DHT22;28939;45.540;-122.632;2022-09-03T16:05:39;20.40;99.90
971;DHT22;28939;45.540;-122.632;2022-09-03T16:08:18;20.60;99.90
971;DHT22;28939;45.540;-122.632;2022-09-03T16:10:58;20.70;99.90
971;DHT22;28939;45.540;-122.632;2022-09-03T16:13:52;20.90;99.90
971;DHT22;28939;45.540;-122.632;2022-09-03T16:16:27;20.80;99.90
971;DHT22;28939;45.540;-122.632;2022-09-03T16:19:04;21.00;99.90
971;DHT22;28939;45.540;-122.632;2022-09-03T16:21:44;20.80;99.90
971;DHT22;28939;45.540;-122.632;2022-09-03T16:24:20;20.90;99.90
971;DHT22;28939;45.540;-122.632;2022-09-03T16:26:55;21.20;99.90